sensor_id;sensor_type;location;lat;lon;timestamp;P1;durP1;ratioP1;P2;durP2;ratioP2
51384;SDS011;37478;55.682;37.462;2023-04-23T00:00:22;19.83;;;9.50;;
51384;SDS011;37478;55.682;37.462;2023-04-23T00:02:48;16.33;;;8.15;;
51384;SDS011;37478;55.682;37.462;2023-04-23T00:05:16;20.15;;;9.70;;
51384;SDS011;37478;55.682;37.462;2023-04-23T00:07:42;19.17;;;8.20;;
51384;SDS011;37478;55.682;37.462;2023-04-23T00:10:08;16.75;;;9.57;;
51384;SDS011;37478;55.682;37.462;2023-04-23T00:12:33;18.63;;;9.43;;
51384;SDS011;37478;55.682;37.462;2023-04-23T00:14:59;16.25;;;8.48;;
51384;SDS011;37478;55.682;37.462;2023-04-23T00:17:25;14.77;;;8.13;;
51384;SDS011;37478;55.682;37.462;2023-04-23T00:19:50;13.75;;;7.90;;
51384;SDS011;37478;55.682;37.462;2023-04-23T00:22:16;16.88;;;8.32;;
51384;SDS011;37478;55.682;37.462;2023-04-23T00:24:41;14.43;;;7.85;;
51384;SDS011;37478;55.682;37.462;2023-04-23T00:27:07;12.45;;;8.43;;
51384;SDS011;37478;55.682;37.462;2023-04-23T00:29:32;20.40;;;8.38;;
51384;SDS011;37478;55.682;37.462;2023-04-23T00:31:57;14.23;;;7.38;;
51384;SDS011;37478;55.682;37.462;2023-04-23T00:34:23;17.00;;;8.27;;
51384;SDS011;37478;55.682;37.462;2023-04-23T00:36:48;20.27;;;8.15;;
51384;SDS011;37478;55.682;37.462;2023-04-23T00:39:13;13.32;;;7.80;;
51384;SDS011;37478;55.682;37.462;2023-04-23T00:41:39;20.75;;;8.52;;
51384;SDS011;37478;55.682;37.462;2023-04-23T00:44:05;18.88;;;7.35;;
51384;SDS011;37478;55.682;37.462;2023-04-23T00:46:31;21.75;;;8.43;;
51384;SDS011;37478;55.682;37.462;2023-04-23T00:48:56;14.43;;;9.15;;
51384;SDS011;37478;55.682;37.462;2023-04-23T00:51:22;17.80;;;7.47;;
51384;SDS011;37478;55.682;37.462;2023-04-23T00:53:48;14.80;;;7.30;;
51384;SDS011;37478;55.682;37.462;2023-04-23T00:56:14;12.70;;;6.25;;
51384;SDS011;37478;55.682;37.462;2023-04-23T00:58:39;14.70;;;7.15;;
51384;SDS011;37478;55.682;37.462;2023-04-23T01:01:05;11.30;;;6.57;;
51384;SDS011;37478;55.682;37.462;2023-04-23T01:03:31;14.88;;;6.20;;
51384;SDS011;37478;55.682;37.462;2023-04-23T01:06:00;13.48;;;6.88;;
51384;SDS011;37478;55.682;37.462;2023-04-23T01:08:25;13.07;;;6.75;;
51384;SDS011;37478;55.682;37.462;2023-04-23T01:10:51;13.85;;;6.85;;
51384;SDS011;37478;55.682;37.462;2023-04-23T01:13:16;12.82;;;6.13;;
51384;SDS011;37478;55.682;37.462;2023-04-23T01:15:43;10.18;;;5.30;;
51384;SDS011;37478;55.682;37.462;2023-04-23T01:18:08;11.90;;;7.20;;
51384;SDS011;37478;55.682;37.462;2023-04-23T01:20:35;15.73;;;6.15;;
51384;SDS011;37478;55.682;37.462;2023-04-23T01:23:03;12.18;;;6.43;;
51384;SDS011;37478;55.682;37.462;2023-04-23T01:25:29;12.65;;;6.38;;
51384;SDS011;37478;55.682;37.462;2023-04-23T01:27:55;11.95;;;6.55;;
51384;SDS011;37478;55.682;37.462;2023-04-23T01:30:21;10.13;;;6.07;;
51384;SDS011;37478;55.682;37.462;2023-04-23T01:32:46;9.65;;;6.13;;
51384;SDS011;37478;55.682;37.462;2023-04-23T01:35:12;17.02;;;7.28;;
51384;SDS011;37478;55.682;37.462;2023-04-23T01:37:38;17.35;;;7.40;;
51384;SDS011;37478;55.682;37.462;2023-04-23T01:40:04;12.05;;;6.82;;
51384;SDS011;37478;55.682;37.462;2023-04-23T01:42:30;20.70;;;8.02;;
51384;SDS011;37478;55.682;37.462;2023-04-23T01:44:55;11.50;;;7.38;;
51384;SDS011;37478;55.682;37.462;2023-04-23T01:47:21;13.48;;;7.60;;
51384;SDS011;37478;55.682;37.462;2023-04-23T01:49:46;20.52;;;7.57;;
51384;SDS011;37478;55.682;37.462;2023-04-23T01:52:12;13.20;;;7.55;;
51384;SDS011;37478;55.682;37.462;2023-04-23T01:54:37;21.08;;;7.32;;
51384;SDS011;37478;55.682;37.462;2023-04-23T01:57:02;15.48;;;6.97;;
51384;SDS011;37478;55.682;37.462;2023-04-23T01:59:28;15.07;;;7.03;;
51384;SDS011;37478;55.682;37.462;2023-04-23T02:01:53;12.32;;;6.85;;
51384;SDS011;37478;55.682;37.462;2023-04-23T02:04:19;13.40;;;7.55;;
51384;SDS011;37478;55.682;37.462;2023-04-23T02:06:45;14.60;;;8.02;;
51384;SDS011;37478;55.682;37.462;2023-04-23T02:09:11;15.52;;;7.35;;
51384;SDS011;37478;55.682;37.462;2023-04-23T02:11:36;13.48;;;7.25;;
51384;SDS011;37478;55.682;37.462;2023-04-23T02:14:02;14.10;;;8.20;;
51384;SDS011;37478;55.682;37.462;2023-04-23T02:16:27;16.50;;;7.85;;
51384;SDS011;37478;55.682;37.462;2023-04-23T02:18:53;17.00;;;7.72;;
51384;SDS011;37478;55.682;37.462;2023-04-23T02:21:20;34.28;;;10.88;;
51384;SDS011;37478;55.682;37.462;2023-04-23T02:23:45;15.50;;;8.25;;
51384;SDS011;37478;55.682;37.462;2023-04-23T02:26:10;16.02;;;7.78;;
51384;SDS011;37478;55.682;37.462;2023-04-23T02:28:35;13.25;;;8.05;;
51384;SDS011;37478;55.682;37.462;2023-04-23T02:31:01;13.75;;;7.60;;
51384;SDS011;37478;55.682;37.462;2023-04-23T02:33:26;14.30;;;8.02;;
51384;SDS011;37478;55.682;37.462;2023-04-23T02:35:51;13.35;;;5.60;;
51384;SDS011;37478;55.682;37.462;2023-04-23T02:38:17;15.38;;;7.30;;
51384;SDS011;37478;55.682;37.462;2023-04-23T02:40:42;12.15;;;7.18;;
51384;SDS011;37478;55.682;37.462;2023-04-23T02:43:07;19.35;;;8.15;;
51384;SDS011;37478;55.682;37.462;2023-04-23T02:45:33;12.85;;;7.13;;
51384;SDS011;37478;55.682;37.462;2023-04-23T02:47:58;17.23;;;6.97;;
51384;SDS011;37478;55.682;37.462;2023-04-23T02:50:23;11.93;;;6.07;;
51384;SDS011;37478;55.682;37.462;2023-04-23T02:52:49;10.60;;;5.20;;
51384;SDS011;37478;55.682;37.462;2023-04-23T02:55:14;14.95;;;6.05;;
51384;SDS011;37478;55.682;37.462;2023-04-23T02:57:40;9.07;;;5.95;;
51384;SDS011;37478;55.682;37.462;2023-04-23T03:00:05;7.82;;;4.80;;
51384;SDS011;37478;55.682;37.462;2023-04-23T03:02:31;10.77;;;5.55;;
51384;SDS011;37478;55.682;37.462;2023-04-23T03:04:56;9.75;;;5.85;;
51384;SDS011;37478;55.682;37.462;2023-04-23T03:07:22;11.10;;;6.35;;
51384;SDS011;37478;55.682;37.462;2023-04-23T03:09:47;11.55;;;5.93;;
51384;SDS011;37478;55.682;37.462;2023-04-23T03:12:12;14.52;;;6.57;;
51384;SDS011;37478;55.682;37.462;2023-04-23T03:14:38;13.05;;;6.05;;
51384;SDS011;37478;55.682;37.462;2023-04-23T03:17:03;10.10;;;6.10;;
51384;SDS011;37478;55.682;37.462;2023-04-23T03:19:28;24.42;;;12.73;;
51384;SDS011;37478;55.682;37.462;2023-04-23T03:21:54;14.38;;;8.27;;
51384;SDS011;37478;55.682;37.462;2023-04-23T03:24:20;16.17;;;8.70;;
51384;SDS011;37478;55.682;37.462;2023-04-23T03:26:45;10.25;;;5.97;;
51384;SDS011;37478;55.682;37.462;2023-04-23T03:29:11;10.93;;;6.50;;
51384;SDS011;37478;55.682;37.462;2023-04-23T03:31:36;10.95;;;5.82;;
51384;SDS011;37478;55.682;37.462;2023-04-23T03:34:01;9.18;;;6.05;;
51384;SDS011;37478;55.682;37.462;2023-04-23T03:36:27;10.43;;;5.93;;
51384;SDS011;37478;55.682;37.462;2023-04-23T03:38:53;12.02;;;6.75;;
51384;SDS011;37478;55.682;37.462;2023-04-23T03:41:18;11.68;;;4.88;;
51384;SDS011;37478;55.682;37.462;2023-04-23T03:43:43;10.23;;;5.63;;
51384;SDS011;37478;55.682;37.462;2023-04-23T03:46:09;8.82;;;4.75;;
51384;SDS011;37478;55.682;37.462;2023-04-23T03:48:34;8.50;;;4.68;;
51384;SDS011;37478;55.682;37.462;2023-04-23T03:51:00;7.47;;;4.10;;
51384;SDS011;37478;55.682;37.462;2023-04-23T03:53:25;12.57;;;4.75;;
51384;SDS011;37478;55.682;37.462;2023-04-23T03:55:50;7.88;;;3.97;;
51384;SDS011;37478;55.682;37.462;2023-04-23T03:58:16;6.95;;;3.90;;
51384;SDS011;37478;55.682;37.462;2023-04-23T04:00:41;7.80;;;3.72;;
51384;SDS011;37478;55.682;37.462;2023-04-23T04:03:06;8.52;;;5.53;;
51384;SDS011;37478;55.682;37.462;2023-04-23T04:05:33;7.07;;;4.32;;
51384;SDS011;37478;55.682;37.462;2023-04-23T04:07:59;7.95;;;4.10;;
51384;SDS011;37478;55.682;37.462;2023-04-23T04:10:25;9.25;;;4.32;;
51384;SDS011;37478;55.682;37.462;2023-04-23T04:12:51;8.18;;;5.95;;
51384;SDS011;37478;55.682;37.462;2023-04-23T04:15:16;6.38;;;4.25;;
51384;SDS011;37478;55.682;37.462;2023-04-23T04:17:44;8.65;;;5.00;;
51384;SDS011;37478;55.682;37.462;2023-04-23T04:20:10;14.27;;;6.80;;
51384;SDS011;37478;55.682;37.462;2023-04-23T04:22:35;14.63;;;6.45;;
51384;SDS011;37478;55.682;37.462;2023-04-23T04:25:01;8.40;;;5.20;;
51384;SDS011;37478;55.682;37.462;2023-04-23T04:27:26;12.13;;;5.30;;
51384;SDS011;37478;55.682;37.462;2023-04-23T04:29:51;8.13;;;4.68;;
51384;SDS011;37478;55.682;37.462;2023-04-23T04:32:17;9.45;;;4.93;;
51384;SDS011;37478;55.682;37.462;2023-04-23T04:34:43;9.57;;;5.28;;
51384;SDS011;37478;55.682;37.462;2023-04-23T04:37:08;10.20;;;6.18;;
51384;SDS011;37478;55.682;37.462;2023-04-23T04:39:35;10.73;;;4.90;;
51384;SDS011;37478;55.682;37.462;2023-04-23T04:42:01;12.32;;;7.15;;
51384;SDS011;37478;55.682;37.462;2023-04-23T04:44:27;12.20;;;6.93;;
51384;SDS011;37478;55.682;37.462;2023-04-23T04:46:52;10.57;;;6.03;;
51384;SDS011;37478;55.682;37.462;2023-04-23T04:49:17;11.32;;;6.55;;
51384;SDS011;37478;55.682;37.462;2023-04-23T04:51:43;11.27;;;6.07;;
51384;SDS011;37478;55.682;37.462;2023-04-23T04:54:08;10.32;;;6.20;;
51384;SDS011;37478;55.682;37.462;2023-04-23T04:56:34;11.13;;;6.43;;
51384;SDS011;37478;55.682;37.462;2023-04-23T04:58:59;13.23;;;7.03;;
51384;SDS011;37478;55.682;37.462;2023-04-23T05:01:25;11.30;;;6.13;;
51384;SDS011;37478;55.682;37.462;2023-04-23T05:03:51;11.85;;;5.78;;
51384;SDS011;37478;55.682;37.462;2023-04-23T05:06:17;12.30;;;6.57;;
51384;SDS011;37478;55.682;37.462;2023-04-23T05:08:42;10.13;;;5.40;;
51384;SDS011;37478;55.682;37.462;2023-04-23T05:11:12;9.52;;;6.20;;
51384;SDS011;37478;55.682;37.462;2023-04-23T05:13:38;10.30;;;5.57;;
51384;SDS011;37478;55.682;37.462;2023-04-23T05:16:03;15.38;;;5.70;;
51384;SDS011;37478;55.682;37.462;2023-04-23T05:18:28;14.57;;;6.70;;
51384;SDS011;37478;55.682;37.462;2023-04-23T05:20:54;13.20;;;6.10;;
51384;SDS011;37478;55.682;37.462;2023-04-23T05:23:19;12.57;;;5.85;;
51384;SDS011;37478;55.682;37.462;2023-04-23T05:25:44;8.70;;;5.45;;
51384;SDS011;37478;55.682;37.462;2023-04-23T05:28:10;9.13;;;6.38;;
51384;SDS011;37478;55.682;37.462;2023-04-23T05:30:35;6.43;;;4.47;;
51384;SDS011;37478;55.682;37.462;2023-04-23T05:33:01;13.68;;;4.93;;
51384;SDS011;37478;55.682;37.462;2023-04-23T05:35:26;10.35;;;5.78;;
51384;SDS011;37478;55.682;37.462;2023-04-23T05:37:51;12.52;;;5.95;;
51384;SDS011;37478;55.682;37.462;2023-04-23T05:40:16;13.50;;;5.55;;
51384;SDS011;37478;55.682;37.462;2023-04-23T05:42:42;11.00;;;7.40;;
51384;SDS011;37478;55.682;37.462;2023-04-23T05:45:07;10.07;;;5.10;;
51384;SDS011;37478;55.682;37.462;2023-04-23T05:47:33;10.15;;;5.22;;
51384;SDS011;37478;55.682;37.462;2023-04-23T05:49:58;9.50;;;5.15;;
51384;SDS011;37478;55.682;37.462;2023-04-23T05:52:23;9.98;;;5.45;;
51384;SDS011;37478;55.682;37.462;2023-04-23T05:54:49;10.48;;;5.47;;
51384;SDS011;37478;55.682;37.462;2023-04-23T05:57:14;8.45;;;5.32;;
51384;SDS011;37478;55.682;37.462;2023-04-23T05:59:40;8.65;;;5.85;;
51384;SDS011;37478;55.682;37.462;2023-04-23T06:02:06;10.00;;;5.40;;
51384;SDS011;37478;55.682;37.462;2023-04-23T06:04:31;10.27;;;5.63;;
51384;SDS011;37478;55.682;37.462;2023-04-23T06:06:57;11.25;;;6.28;;
51384;SDS011;37478;55.682;37.462;2023-04-23T06:09:22;11.98;;;6.65;;
51384;SDS011;37478;55.682;37.462;2023-04-23T06:11:47;9.43;;;6.00;;
51384;SDS011;37478;55.682;37.462;2023-04-23T06:14:15;13.70;;;7.47;;
51384;SDS011;37478;55.682;37.462;2023-04-23T06:16:40;14.60;;;7.40;;
51384;SDS011;37478;55.682;37.462;2023-04-23T06:19:05;10.35;;;6.57;;
51384;SDS011;37478;55.682;37.462;2023-04-23T06:21:30;10.60;;;6.07;;
51384;SDS011;37478;55.682;37.462;2023-04-23T06:23:56;10.43;;;6.50;;
51384;SDS011;37478;55.682;37.462;2023-04-23T06:26:21;13.57;;;7.32;;
51384;SDS011;37478;55.682;37.462;2023-04-23T06:28:47;12.52;;;6.68;;
51384;SDS011;37478;55.682;37.462;2023-04-23T06:31:12;10.80;;;6.22;;
51384;SDS011;37478;55.682;37.462;2023-04-23T06:33:37;13.52;;;6.75;;
51384;SDS011;37478;55.682;37.462;2023-04-23T06:36:03;13.20;;;6.90;;
51384;SDS011;37478;55.682;37.462;2023-04-23T06:38:29;14.30;;;6.57;;
51384;SDS011;37478;55.682;37.462;2023-04-23T06:40:54;11.43;;;7.03;;
51384;SDS011;37478;55.682;37.462;2023-04-23T06:43:20;11.95;;;7.07;;
51384;SDS011;37478;55.682;37.462;2023-04-23T06:45:45;14.57;;;7.90;;
51384;SDS011;37478;55.682;37.462;2023-04-23T06:48:11;17.33;;;9.25;;
51384;SDS011;37478;55.682;37.462;2023-04-23T06:50:40;14.93;;;8.57;;
51384;SDS011;37478;55.682;37.462;2023-04-23T06:53:05;11.95;;;9.07;;
51384;SDS011;37478;55.682;37.462;2023-04-23T06:55:31;13.02;;;8.57;;
51384;SDS011;37478;55.682;37.462;2023-04-23T06:57:56;19.13;;;10.00;;
51384;SDS011;37478;55.682;37.462;2023-04-23T07:00:22;17.05;;;10.43;;
51384;SDS011;37478;55.682;37.462;2023-04-23T07:02:47;15.15;;;9.82;;
51384;SDS011;37478;55.682;37.462;2023-04-23T07:05:13;13.45;;;9.68;;
51384;SDS011;37478;55.682;37.462;2023-04-23T07:07:39;14.38;;;9.57;;
51384;SDS011;37478;55.682;37.462;2023-04-23T07:10:05;17.52;;;9.75;;
51384;SDS011;37478;55.682;37.462;2023-04-23T07:12:31;13.60;;;9.38;;
51384;SDS011;37478;55.682;37.462;2023-04-23T07:14:56;13.10;;;8.93;;
51384;SDS011;37478;55.682;37.462;2023-04-23T07:17:21;14.57;;;8.27;;
51384;SDS011;37478;55.682;37.462;2023-04-23T07:19:46;18.02;;;7.63;;
51384;SDS011;37478;55.682;37.462;2023-04-23T07:22:12;12.60;;;7.60;;
51384;SDS011;37478;55.682;37.462;2023-04-23T07:24:37;11.73;;;7.57;;
51384;SDS011;37478;55.682;37.462;2023-04-23T07:27:02;11.55;;;8.07;;
51384;SDS011;37478;55.682;37.462;2023-04-23T07:29:28;18.73;;;9.35;;
51384;SDS011;37478;55.682;37.462;2023-04-23T07:31:53;16.98;;;8.00;;
51384;SDS011;37478;55.682;37.462;2023-04-23T07:34:19;11.45;;;7.22;;
51384;SDS011;37478;55.682;37.462;2023-04-23T07:36:44;8.23;;;6.38;;
51384;SDS011;37478;55.682;37.462;2023-04-23T07:39:09;13.73;;;7.57;;
51384;SDS011;37478;55.682;37.462;2023-04-23T07:41:35;10.75;;;6.32;;
51384;SDS011;37478;55.682;37.462;2023-04-23T07:44:00;8.30;;;6.00;;
51384;SDS011;37478;55.682;37.462;2023-04-23T07:46:26;11.13;;;6.35;;
51384;SDS011;37478;55.682;37.462;2023-04-23T07:48:51;14.98;;;6.32;;
51384;SDS011;37478;55.682;37.462;2023-04-23T07:51:17;8.98;;;5.88;;
51384;SDS011;37478;55.682;37.462;2023-04-23T07:53:42;7.40;;;3.70;;
51384;SDS011;37478;55.682;37.462;2023-04-23T07:56:08;9.77;;;3.83;;
51384;SDS011;37478;55.682;37.462;2023-04-23T07:58:33;8.18;;;3.72;;
51384;SDS011;37478;55.682;37.462;2023-04-23T08:01:00;5.38;;;1.90;;
51384;SDS011;37478;55.682;37.462;2023-04-23T08:03:26;7.68;;;4.20;;
51384;SDS011;37478;55.682;37.462;2023-04-23T08:05:52;11.25;;;3.97;;
51384;SDS011;37478;55.682;37.462;2023-04-23T08:08:17;4.32;;;2.47;;
51384;SDS011;37478;55.682;37.462;2023-04-23T08:10:42;6.10;;;4.88;;
51384;SDS011;37478;55.682;37.462;2023-04-23T08:13:07;7.28;;;4.07;;
51384;SDS011;37478;55.682;37.462;2023-04-23T08:15:33;5.40;;;4.28;;
51384;SDS011;37478;55.682;37.462;2023-04-23T08:17:58;5.20;;;3.17;;
51384;SDS011;37478;55.682;37.462;2023-04-23T08:20:24;5.75;;;3.22;;
51384;SDS011;37478;55.682;37.462;2023-04-23T08:22:49;7.45;;;3.33;;
51384;SDS011;37478;55.682;37.462;2023-04-23T08:25:15;5.97;;;3.22;;
51384;SDS011;37478;55.682;37.462;2023-04-23T08:27:40;3.25;;;2.30;;
51384;SDS011;37478;55.682;37.462;2023-04-23T08:30:06;5.35;;;2.97;;
51384;SDS011;37478;55.682;37.462;2023-04-23T08:32:32;6.93;;;2.78;;
51384;SDS011;37478;55.682;37.462;2023-04-23T08:34:57;5.38;;;1.83;;
51384;SDS011;37478;55.682;37.462;2023-04-23T08:37:29;2.17;;;1.90;;
51384;SDS011;37478;55.682;37.462;2023-04-23T08:39:54;7.97;;;2.03;;
51384;SDS011;37478;55.682;37.462;2023-04-23T08:42:23;3.03;;;1.13;;
51384;SDS011;37478;55.682;37.462;2023-04-23T08:44:51;1.98;;;1.10;;
51384;SDS011;37478;55.682;37.462;2023-04-23T08:47:17;1.90;;;1.63;;
51384;SDS011;37478;55.682;37.462;2023-04-23T08:49:43;3.25;;;1.65;;
51384;SDS011;37478;55.682;37.462;2023-04-23T08:52:15;3.15;;;1.42;;
51384;SDS011;37478;55.682;37.462;2023-04-23T08:54:48;2.83;;;1.98;;
51384;SDS011;37478;55.682;37.462;2023-04-23T08:57:15;3.30;;;2.15;;
51384;SDS011;37478;55.682;37.462;2023-04-23T08:59:40;5.05;;;2.67;;
51384;SDS011;37478;55.682;37.462;2023-04-23T09:02:06;2.90;;;2.00;;
51384;SDS011;37478;55.682;37.462;2023-04-23T09:04:34;3.00;;;1.92;;
51384;SDS011;37478;55.682;37.462;2023-04-23T09:06:59;4.57;;;2.28;;
51384;SDS011;37478;55.682;37.462;2023-04-23T09:09:24;3.13;;;1.83;;
51384;SDS011;37478;55.682;37.462;2023-04-23T09:11:51;4.85;;;2.50;;
51384;SDS011;37478;55.682;37.462;2023-04-23T09:14:17;4.30;;;2.15;;
51384;SDS011;37478;55.682;37.462;2023-04-23T09:16:43;5.28;;;3.85;;
51384;SDS011;37478;55.682;37.462;2023-04-23T09:19:08;5.78;;;1.70;;
51384;SDS011;37478;55.682;37.462;2023-04-23T09:21:34;8.02;;;2.05;;
51384;SDS011;37478;55.682;37.462;2023-04-23T09:24:03;3.33;;;1.95;;
51384;SDS011;37478;55.682;37.462;2023-04-23T09:26:28;3.58;;;2.35;;
51384;SDS011;37478;55.682;37.462;2023-04-23T09:28:54;4.28;;;2.20;;
51384;SDS011;37478;55.682;37.462;2023-04-23T09:31:20;6.55;;;3.17;;
51384;SDS011;37478;55.682;37.462;2023-04-23T09:33:49;7.53;;;2.53;;
51384;SDS011;37478;55.682;37.462;2023-04-23T09:36:15;7.60;;;2.72;;
51384;SDS011;37478;55.682;37.462;2023-04-23T09:38:40;3.35;;;2.13;;
51384;SDS011;37478;55.682;37.462;2023-04-23T09:43:51;3.95;;;2.30;;
51384;SDS011;37478;55.682;37.462;2023-04-23T09:46:16;5.57;;;2.20;;
51384;SDS011;37478;55.682;37.462;2023-04-23T09:48:42;3.55;;;2.63;;
51384;SDS011;37478;55.682;37.462;2023-04-23T09:51:07;3.25;;;2.38;;
51384;SDS011;37478;55.682;37.462;2023-04-23T09:53:39;3.58;;;2.10;;
51384;SDS011;37478;55.682;37.462;2023-04-23T09:56:05;8.20;;;2.13;;
51384;SDS011;37478;55.682;37.462;2023-04-23T09:58:31;4.53;;;2.30;;
51384;SDS011;37478;55.682;37.462;2023-04-23T10:01:04;3.83;;;2.55;;
51384;SDS011;37478;55.682;37.462;2023-04-23T10:03:30;4.47;;;2.63;;
51384;SDS011;37478;55.682;37.462;2023-04-23T10:05:55;2.92;;;2.25;;
51384;SDS011;37478;55.682;37.462;2023-04-23T10:08:22;2.47;;;2.10;;
51384;SDS011;37478;55.682;37.462;2023-04-23T10:10:48;3.95;;;2.47;;
51384;SDS011;37478;55.682;37.462;2023-04-23T10:13:13;4.60;;;1.90;;
51384;SDS011;37478;55.682;37.462;2023-04-23T10:15:39;4.88;;;2.40;;
51384;SDS011;37478;55.682;37.462;2023-04-23T10:18:04;2.75;;;1.67;;
51384;SDS011;37478;55.682;37.462;2023-04-23T10:20:32;2.03;;;1.70;;
51384;SDS011;37478;55.682;37.462;2023-04-23T10:22:58;3.10;;;1.83;;
51384;SDS011;37478;55.682;37.462;2023-04-23T10:25:24;4.28;;;2.17;;
51384;SDS011;37478;55.682;37.462;2023-04-23T10:27:50;5.55;;;2.60;;
51384;SDS011;37478;55.682;37.462;2023-04-23T10:30:16;6.45;;;2.22;;
51384;SDS011;37478;55.682;37.462;2023-04-23T10:32:42;3.83;;;2.08;;
51384;SDS011;37478;55.682;37.462;2023-04-23T10:35:08;3.63;;;2.00;;
51384;SDS011;37478;55.682;37.462;2023-04-23T10:37:35;8.02;;;2.35;;
51384;SDS011;37478;55.682;37.462;2023-04-23T10:40:05;11.57;;;2.45;;
51384;SDS011;37478;55.682;37.462;2023-04-23T10:42:33;2.97;;;1.95;;
51384;SDS011;37478;55.682;37.462;2023-04-23T10:44:58;5.68;;;2.55;;
51384;SDS011;37478;55.682;37.462;2023-04-23T10:47:24;2.63;;;1.85;;
51384;SDS011;37478;55.682;37.462;2023-04-23T10:49:49;5.88;;;2.17;;
51384;SDS011;37478;55.682;37.462;2023-04-23T10:52:16;4.13;;;2.10;;
51384;SDS011;37478;55.682;37.462;2023-04-23T10:54:49;3.22;;;1.88;;
51384;SDS011;37478;55.682;37.462;2023-04-23T10:57:14;4.85;;;3.08;;
51384;SDS011;37478;55.682;37.462;2023-04-23T10:59:42;4.68;;;2.08;;
51384;SDS011;37478;55.682;37.462;2023-04-23T11:02:15;6.10;;;1.88;;
51384;SDS011;37478;55.682;37.462;2023-04-23T11:04:41;8.07;;;2.80;;
51384;SDS011;37478;55.682;37.462;2023-04-23T11:07:09;5.43;;;2.40;;
51384;SDS011;37478;55.682;37.462;2023-04-23T11:12:07;6.10;;;2.65;;
51384;SDS011;37478;55.682;37.462;2023-04-23T11:17:00;3.90;;;2.40;;
51384;SDS011;37478;55.682;37.462;2023-04-23T11:19:26;5.30;;;2.20;;
51384;SDS011;37478;55.682;37.462;2023-04-23T11:22:01;4.57;;;2.55;;
51384;SDS011;37478;55.682;37.462;2023-04-23T11:24:33;4.03;;;2.40;;
51384;SDS011;37478;55.682;37.462;2023-04-23T11:27:03;4.45;;;2.90;;
51384;SDS011;37478;55.682;37.462;2023-04-23T11:29:29;5.43;;;2.05;;
51384;SDS011;37478;55.682;37.462;2023-04-23T11:31:54;4.60;;;2.47;;
51384;SDS011;37478;55.682;37.462;2023-04-23T11:34:20;3.95;;;2.38;;
51384;SDS011;37478;55.682;37.462;2023-04-23T11:36:47;6.95;;;2.75;;
51384;SDS011;37478;55.682;37.462;2023-04-23T11:39:12;5.55;;;2.55;;
51384;SDS011;37478;55.682;37.462;2023-04-23T11:41:38;9.57;;;2.75;;
51384;SDS011;37478;55.682;37.462;2023-04-23T11:44:03;15.02;;;3.85;;
51384;SDS011;37478;55.682;37.462;2023-04-23T11:46:29;6.72;;;3.28;;
51384;SDS011;37478;55.682;37.462;2023-04-23T11:48:55;6.63;;;2.78;;
51384;SDS011;37478;55.682;37.462;2023-04-23T11:51:26;5.85;;;3.28;;
51384;SDS011;37478;55.682;37.462;2023-04-23T11:53:51;6.50;;;3.53;;
51384;SDS011;37478;55.682;37.462;2023-04-23T11:56:17;7.00;;;2.90;;
51384;SDS011;37478;55.682;37.462;2023-04-23T11:58:42;5.97;;;3.92;;
51384;SDS011;37478;55.682;37.462;2023-04-23T12:01:09;5.25;;;3.20;;
51384;SDS011;37478;55.682;37.462;2023-04-23T12:03:35;6.32;;;3.65;;
51384;SDS011;37478;55.682;37.462;2023-04-23T12:06:00;6.43;;;3.35;;
51384;SDS011;37478;55.682;37.462;2023-04-23T12:08:30;5.28;;;3.10;;
51384;SDS011;37478;55.682;37.462;2023-04-23T12:10:59;4.90;;;3.38;;
51384;SDS011;37478;55.682;37.462;2023-04-23T12:13:28;5.25;;;2.95;;
51384;SDS011;37478;55.682;37.462;2023-04-23T12:15:56;6.70;;;3.25;;
51384;SDS011;37478;55.682;37.462;2023-04-23T12:18:32;11.05;;;3.40;;
51384;SDS011;37478;55.682;37.462;2023-04-23T12:21:13;6.35;;;2.78;;
51384;SDS011;37478;55.682;37.462;2023-04-23T12:23:39;5.32;;;3.45;;
51384;SDS011;37478;55.682;37.462;2023-04-23T12:26:11;10.45;;;3.30;;
51384;SDS011;37478;55.682;37.462;2023-04-23T12:28:53;4.80;;;3.28;;
51384;SDS011;37478;55.682;37.462;2023-04-23T12:31:24;4.15;;;3.35;;
51384;SDS011;37478;55.682;37.462;2023-04-23T12:33:55;4.18;;;3.00;;
51384;SDS011;37478;55.682;37.462;2023-04-23T12:36:21;6.47;;;3.40;;
51384;SDS011;37478;55.682;37.462;2023-04-23T12:38:50;7.78;;;2.97;;
51384;SDS011;37478;55.682;37.462;2023-04-23T12:41:15;7.00;;;3.00;;
51384;SDS011;37478;55.682;37.462;2023-04-23T12:43:41;5.32;;;2.47;;
51384;SDS011;37478;55.682;37.462;2023-04-23T12:46:06;7.63;;;3.17;;
51384;SDS011;37478;55.682;37.462;2023-04-23T12:48:32;7.43;;;2.70;;
51384;SDS011;37478;55.682;37.462;2023-04-23T12:50:57;5.53;;;3.80;;
51384;SDS011;37478;55.682;37.462;2023-04-23T12:53:22;15.90;;;3.92;;
51384;SDS011;37478;55.682;37.462;2023-04-23T12:55:47;6.95;;;4.05;;
51384;SDS011;37478;55.682;37.462;2023-04-23T12:58:14;8.40;;;3.83;;
51384;SDS011;37478;55.682;37.462;2023-04-23T13:00:39;7.50;;;3.35;;
51384;SDS011;37478;55.682;37.462;2023-04-23T13:03:04;9.95;;;3.15;;
51384;SDS011;37478;55.682;37.462;2023-04-23T13:05:30;5.30;;;2.90;;
51384;SDS011;37478;55.682;37.462;2023-04-23T13:07:55;7.28;;;3.15;;
51384;SDS011;37478;55.682;37.462;2023-04-23T13:10:21;3.78;;;2.42;;
51384;SDS011;37478;55.682;37.462;2023-04-23T13:12:46;5.82;;;3.33;;
51384;SDS011;37478;55.682;37.462;2023-04-23T13:15:11;8.55;;;3.22;;
51384;SDS011;37478;55.682;37.462;2023-04-23T13:17:37;3.90;;;2.75;;
51384;SDS011;37478;55.682;37.462;2023-04-23T13:20:02;5.30;;;2.90;;
51384;SDS011;37478;55.682;37.462;2023-04-23T13:22:28;6.38;;;3.25;;
51384;SDS011;37478;55.682;37.462;2023-04-23T13:24:54;6.10;;;3.10;;
51384;SDS011;37478;55.682;37.462;2023-04-23T13:27:21;4.93;;;3.50;;
51384;SDS011;37478;55.682;37.462;2023-04-23T13:29:48;4.82;;;3.00;;
51384;SDS011;37478;55.682;37.462;2023-04-23T13:32:13;4.63;;;3.15;;
51384;SDS011;37478;55.682;37.462;2023-04-23T13:34:40;9.40;;;3.97;;
51384;SDS011;37478;55.682;37.462;2023-04-23T13:37:05;5.75;;;3.38;;
51384;SDS011;37478;55.682;37.462;2023-04-23T13:39:33;6.22;;;3.00;;
51384;SDS011;37478;55.682;37.462;2023-04-23T13:41:58;5.85;;;3.63;;
51384;SDS011;37478;55.682;37.462;2023-04-23T13:44:23;4.85;;;3.63;;
51384;SDS011;37478;55.682;37.462;2023-04-23T13:46:49;5.78;;;3.67;;
51384;SDS011;37478;55.682;37.462;2023-04-23T13:49:14;5.05;;;2.90;;
51384;SDS011;37478;55.682;37.462;2023-04-23T13:51:46;6.03;;;3.20;;
51384;SDS011;37478;55.682;37.462;2023-04-23T13:54:11;6.72;;;2.75;;
51384;SDS011;37478;55.682;37.462;2023-04-23T13:56:37;3.17;;;2.42;;
51384;SDS011;37478;55.682;37.462;2023-04-23T13:59:02;6.63;;;2.85;;
51384;SDS011;37478;55.682;37.462;2023-04-23T14:01:28;6.75;;;3.10;;
51384;SDS011;37478;55.682;37.462;2023-04-23T14:03:53;5.93;;;2.97;;
51384;SDS011;37478;55.682;37.462;2023-04-23T14:06:19;4.63;;;3.15;;
51384;SDS011;37478;55.682;37.462;2023-04-23T14:08:44;13.05;;;3.53;;
51384;SDS011;37478;55.682;37.462;2023-04-23T14:11:10;6.13;;;2.92;;
51384;SDS011;37478;55.682;37.462;2023-04-23T14:13:35;3.53;;;2.53;;
51384;SDS011;37478;55.682;37.462;2023-04-23T14:16:01;4.18;;;2.50;;
51384;SDS011;37478;55.682;37.462;2023-04-23T14:18:26;3.33;;;2.40;;
51384;SDS011;37478;55.682;37.462;2023-04-23T14:20:52;3.53;;;2.47;;
51384;SDS011;37478;55.682;37.462;2023-04-23T14:25:46;4.50;;;3.03;;
51384;SDS011;37478;55.682;37.462;2023-04-23T14:31:01;7.10;;;3.50;;
51384;SDS011;37478;55.682;37.462;2023-04-23T14:33:27;6.90;;;3.22;;